SBSN/STM METAR and TAF weather

Enter ICAO airport designator
Station Type Date Time Source
SBSN METAR 2019/05/21 21:00 UTC NOAA

SBSN 212100Z 33002KT 9999 SCT017 FEW025TCU 27/26 Q1009


Station Type Date Time Source
SBSN Decoded METAR 2019/05/21 21:00 UTC NOAA

Santarem-Aeroporto, Brazil (SBSN) 02-26S 054-43W 72M
May 21, 2019 - 05:00 PM EDT / 2019.05.21 2100 UTC
Wind: from the NNW (330 degrees) at 2 MPH (2 KT):0
Visibility: greater than 7 mile(s):0
Sky conditions: partly cloudy
Weather: Towering cumulus clouds observed
Temperature: 80 F (27 C)
Dew Point: 78 F (26 C)
Relative Humidity: 94%
Pressure (altimeter): 29.80 in. Hg (1009 hPa)
ob: SBSN 212100Z 33002KT 9999 SCT017 FEW025TCU 27/26 Q1009
cycle: 21

Station Type Date Time Source
SBSN TAF 2019/05/21 18:33 UTC NOAA

TAF SBSN 211600Z 2118/2218 07005KT 9999 SCT015 FEW025TCU TN24/2206Z TX30/2218Z
BECMG 2123/2201 00000KT FEW015 PROB30 2204/2208 TS FEW015 FEW025CB
BECMG 2209/2211 12005KT FEW017
RMK PEN

Example: see airport list